Terminal Aerodrome Forecast
Issued by NWS

Home | Current Version | Previous Version | Graphics & Text | Print | Product List | Glossary On
Versions: 1 2 3 4 5 6 7 8 9 10 11 12 13 14 15 16 17 18
000
FTUS43 KICT 241124
TAFSLN
TAF
KSLN 241124Z 2412/2512 33014KT P6SM BKN020
     FM241400 33013KT P6SM SCT025 SCT070
     FM242100 27010KT P6SM SKC
     FM250100 19008KT P6SM SCT200=

USA.gov is the U.S. government's official web portal to all federal, state and local government web resources and services.